Time;durP1;ratioP1;P1;durP2;ratioP2;P2;SDS_P1;SDS_P2;PMS_P1;PMS_P2;Temp;Humidity;BMP_temperature;BMP_pressure;BME280_temperature;BME280_humidity;BME280_pressure;Samples;Min_cycle;Max_cycle;Signal;HPM_P1;HPM_P2
2022/06/05 00:01:55;;;;;;;1999.90;999.90;;;;;;;23.31;57.08;95470.78;4992240;28;20071;-68
2022/06/05 00:05:02;;;;;;;1999.90;999.90;;;;;;;23.55;56.82;95500.03;4992378;28;20077;-68
2022/06/05 00:07:54;;;;;;;1999.90;999.90;;;;;;;23.32;57.28;95481.25;4989901;28;20487;-65
2022/06/05 00:10:24;;;;;;;1999.90;999.90;;;;;;;23.35;57.40;95468.88;4992130;28;20034;-66
2022/06/05 00:13:09;;;;;;;1999.90;999.90;;;;;;;23.07;57.69;95442.31;4991303;28;20085;-67
2022/06/05 00:15:35;;;;;;;1999.90;999.90;;;;;;;23.23;57.92;95452.88;4990935;28;20030;-67
2022/06/05 00:18:01;;;;;;;1999.90;999.90;;;;;;;23.13;57.61;95437.31;4991154;28;20080;-67
2022/06/05 00:20:26;;;;;;;1999.90;999.90;;;;;;;23.08;58.11;95452.78;4990748;28;20045;-67
2022/06/05 00:22:51;;;;;;;1999.90;999.90;;;;;;;22.93;58.45;95423.19;4989946;28;20114;-67
2022/06/05 00:25:17;;;;;;;1999.90;999.90;;;;;;;23.02;58.87;95459.72;4991857;28;20030;-67
2022/06/05 00:27:50;;;;;;;1999.90;999.90;;;;;;;23.05;58.43;95455.47;4990769;28;20570;-67
2022/06/05 00:30:21;;;;;;;1999.90;999.90;;;;;;;22.90;58.91;95435.59;4990672;28;20045;-67
2022/06/05 00:33:01;;;;;;;1999.90;999.90;;;;;;;22.70;60.02;95456.72;4991966;28;20018;-67
2022/06/05 00:35:32;;;;;;;1999.90;999.90;;;;;;;22.73;59.86;95455.97;4991728;28;20278;-68
2022/06/05 00:38:12;;;;;;;1999.90;999.90;;;;;;;22.79;59.17;95451.75;4990450;28;20066;-67
2022/06/05 00:41:19;;;;;;;1999.90;999.90;;;;;;;22.95;58.93;95459.66;4991808;28;20026;-68
2022/06/05 00:43:45;;;;;;;1999.90;999.90;;;;;;;23.04;58.46;95465.56;4972470;28;20445;-67
2022/06/05 00:46:10;;;;;;;1999.90;999.90;;;;;;;23.00;58.10;95447.69;4990824;28;20034;-68
2022/06/05 00:48:36;;;;;;;1999.90;999.90;;;;;;;22.94;58.73;95452.69;4989875;28;20542;-67
2022/06/05 00:51:02;;;;;;;1999.90;999.90;;;;;;;22.89;58.58;95446.84;4990383;28;20026;-67
2022/06/05 00:53:27;;;;;;;1999.90;999.90;;;;;;;22.99;58.22;95460.47;4988990;28;20026;-67
2022/06/05 00:55:53;;;;;;;1999.90;999.90;;;;;;;22.66;58.89;95445.03;4990685;28;20031;-67
2022/06/05 00:58:20;;;;;;;1999.90;999.90;;;;;;;22.78;59.05;95469.19;4990929;28;20069;-67
2022/06/05 01:00:54;;;;;;;1999.90;999.90;;;;;;;22.99;58.06;95468.63;4991506;28;20126;-67
2022/06/05 01:03:21;;;;;;;1999.90;999.90;;;;;;;23.03;58.00;95449.63;4990459;28;20033;-69
2022/06/05 01:05:46;;;;;;;1999.90;999.90;;;;;;;22.94;58.20;95447.25;4989883;28;20118;-67
2022/06/05 01:08:14;;;;;;;1999.90;999.90;;;;;;;23.02;58.03;95448.06;4989081;28;20163;-67
2022/06/05 01:10:43;;;;;;;1999.90;999.90;;;;;;;22.60;59.72;95456.63;4990059;28;20022;-67
2022/06/05 01:13:33;;;;;;;1999.90;999.90;;;;;;;22.88;58.42;95456.06;4991491;28;20055;-66
2022/06/05 01:16:17;;;;;;;1999.90;999.90;;;;;;;22.96;58.05;95458.50;5005243;28;20054;-67
2022/06/05 01:19:17;;;;;;;1999.90;999.90;;;;;;;22.83;58.31;95428.16;4990725;28;20027;-67
2022/06/05 01:22:31;;;;;;;1999.90;999.90;;;;;;;22.91;58.44;95441.78;4991132;28;20037;-67
2022/06/05 01:25:12;;;;;;;1999.90;999.90;;;;;;;22.68;58.97;95431.91;4912454;28;20039;-66
2022/06/05 01:27:41;;;;;;;1999.90;999.90;;;;;;;22.63;58.93;95410.56;4971460;28;20023;-67
2022/06/05 01:30:16;;;;;;;1999.90;999.90;;;;;;;22.29;59.56;95386.25;4969635;28;20520;-67
2022/06/05 01:32:54;;;;;;;1999.90;999.90;;;;;;;22.63;59.23;95429.53;4976760;28;20046;-67
2022/06/05 01:35:31;;;;;;;1999.90;999.90;;;;;;;22.56;59.23;95426.75;4989396;28;20030;-67
2022/06/05 01:38:03;;;;;;;1999.90;999.90;;;;;;;21.53;59.63;95289.09;4988421;28;20037;-67
2022/06/05 01:40:34;;;;;;;1999.90;999.90;;;;;;;21.24;60.46;95276.38;4990653;28;20062;-67
2022/06/05 01:43:09;;;;;;;1999.90;999.90;;;;;;;21.46;59.40;95261.97;4990712;28;20498;-67
2022/06/05 01:45:49;;;;;;;1999.90;999.90;;;;;;;21.76;58.82;95282.78;4989722;28;20038;-68
2022/06/05 01:48:22;;;;;;;1999.90;999.90;;;;;;;;;;4989946;28;20030;-67
2022/06/05 01:50:53;;;;;;;1999.90;999.90;;;;;;;21.72;59.68;95298.22;4990576;28;20026;-67
2022/06/05 01:53:26;;;;;;;1999.90;999.90;;;;;;;21.54;59.39;95263.59;4989508;28;20018;-67
2022/06/05 01:55:57;;;;;;;1999.90;999.90;;;;;;;21.35;60.06;95287.38;4990438;28;20027;-66
2022/06/05 01:58:33;;;;;;;1999.90;999.90;;;;;;;21.71;59.79;95296.66;4989929;28;20487;-67
2022/06/05 02:01:03;;;;;;;1999.90;999.90;;;;;;;21.51;60.45;95304.16;4989437;28;20034;-66
2022/06/05 02:03:36;;;;;;;1999.90;999.90;;;;;;;21.50;59.00;95251.97;4989979;28;20018;-66
2022/06/05 02:06:13;;;;;;;1999.90;999.90;;;;;;;21.69;59.04;95285.41;4990521;28;20110;-66
2022/06/05 02:08:48;;;;;;;1999.90;999.90;;;;;;;21.49;60.16;95285.56;4988869;28;20448;-66
2022/06/05 02:11:20;;;;;;;1999.90;999.90;;;;;;;21.11;61.53;95281.25;4990512;28;20420;-66
2022/06/05 02:13:46;;;;;;;1999.90;999.90;;;;;;;21.57;59.67;95272.91;4989052;28;20069;-66
2022/06/05 02:16:11;;;;;;;1999.90;999.90;;;;;;;21.57;59.05;95242.38;4989915;28;20030;-66
2022/06/05 02:18:37;;;;;;;1999.90;999.90;;;;;;;22.63;58.87;95396.22;4988989;28;20029;-66
2022/06/05 02:21:04;;;;;;;1999.90;999.90;;;;;;;21.08;58.99;95160.28;4989030;28;20027;-66
2022/06/05 02:23:33;;;;;;;1999.90;999.90;;;;;;;21.91;58.83;95275.56;4988406;28;20065;-66
2022/06/05 02:26:04;;;;;;;1999.90;999.90;;;;;;;21.83;59.22;95269.31;4990084;28;20050;-67
2022/06/05 02:28:30;;;;;;;1999.90;999.90;;;;;;;21.79;58.78;95241.41;4989642;28;20050;-67
2022/06/05 02:31:22;;;;;;;1999.90;999.90;;;;;;;21.70;58.38;95225.50;4989659;28;20775;-67
2022/06/05 02:34:09;;;;;;;1999.90;999.90;;;;;;;21.58;58.78;95206.81;4990081;28;20030;-68
2022/06/05 02:36:52;;;;;;;1999.90;999.90;;;;;;;22.05;58.41;95264.84;4990298;28;20137;-66
2022/06/05 02:39:35;;;;;;;1999.90;999.90;;;;;;;21.37;59.87;95244.47;4988778;28;20405;-66
2022/06/05 02:42:28;;;;;;;1999.90;999.90;;;;;;;21.18;59.69;95202.09;4989990;28;20406;-67
2022/06/05 02:45:06;;;;;;;1999.90;999.90;;;;;;;21.60;59.65;95239.69;4989484;28;20073;-67
2022/06/05 02:47:42;;;;;;;1999.90;999.90;;;;;;;22.04;59.40;95301.22;4988334;28;20038;-67
2022/06/05 02:50:18;;;;;;;1999.90;999.90;;;;;;;20.96;60.03;95176.75;4989490;28;20026;-67
2022/06/05 02:52:44;;;;;;;1999.90;999.90;;;;;;;21.02;61.28;95227.44;4989267;28;20026;-67
2022/06/05 02:55:16;;;;;;;1999.90;999.90;;;;;;;21.94;60.06;95301.91;4989768;28;20077;-67
2022/06/05 02:57:42;;;;;;;1999.90;999.90;;;;;;;21.74;60.08;95299.38;4990024;28;20022;-67
2022/06/05 03:00:16;;;;;;;1999.90;999.90;;;;;;;22.15;59.86;95318.38;4989584;28;20065;-67
2022/06/05 03:05:26;;;;;;;1999.90;999.90;;;;;;;21.29;59.20;95162.41;4970871;28;20038;-67
2022/06/05 03:07:51;;;;;;;1999.90;999.90;;;;;;;21.33;58.95;95165.97;4969101;28;20027;-66
2022/06/05 03:10:17;;;;;;;1999.90;999.90;;;;;;;22.16;59.07;95298.28;4989527;28;20048;-67
2022/06/05 03:12:42;;;;;;;1999.90;999.90;;;;;;;21.56;59.20;95214.53;4989827;28;20046;-67
2022/06/05 03:15:08;;;;;;;1999.90;999.90;;;;;;;22.14;59.08;95287.00;4988916;28;20085;-66
2022/06/05 03:17:34;;;;;;;1999.90;999.90;;;;;;;21.69;59.18;95215.78;4993118;28;20069;-67
2022/06/05 03:19:59;;;;;;;1999.90;999.90;;;;;;;21.56;59.25;95183.97;4992544;28;20038;-67
2022/06/05 03:22:26;;;;;;;1999.90;999.90;;;;;;;21.40;59.39;95166.06;4993200;28;20061;-67
2022/06/05 03:24:52;;;;;;;1999.90;999.90;;;;;;;21.36;58.82;95154.41;4992171;28;20054;-67
2022/06/05 03:27:18;;;;;;;1999.90;999.90;;;;;;;21.23;59.42;95164.69;4993141;28;20466;-67
2022/06/05 03:29:44;;;;;;;1999.90;999.90;;;;;;;21.51;59.78;95217.56;4992736;28;20026;-67
2022/06/05 03:32:09;;;;;;;1999.90;999.90;;;;;;;21.27;59.12;95124.16;4992900;28;20029;-67
2022/06/05 03:34:35;;;;;;;1999.90;999.90;;;;;;;21.51;59.27;95166.16;4992176;28;20050;-67
2022/06/05 03:37:00;;;;;;;1999.90;999.90;;;;;;;21.72;58.21;95162.84;4992802;28;20722;-67
2022/06/05 03:39:26;;;;;;;1999.90;999.90;;;;;;;21.84;58.42;95178.78;4991398;28;20057;-68
2022/06/05 03:41:51;;;;;;;1999.90;999.90;;;;;;;21.54;58.08;95122.09;4992693;28;20038;-67
2022/06/05 03:44:17;;;;;;;1999.90;999.90;;;;;;;22.24;57.71;95207.75;4992623;28;20026;-67
2022/06/05 03:46:42;;;;;;;1999.90;999.90;;;;;;;21.75;57.35;95122.28;4991798;28;20058;-67
2022/06/05 03:49:09;;;;;;;1999.90;999.90;;;;;;;22.05;57.07;95143.72;4990906;28;20038;-67
2022/06/05 03:51:57;;;;;;;1999.90;999.90;;;;;;;23.04;56.90;95253.94;4993415;28;20467;-70
2022/06/05 03:54:23;;;;;;;1999.90;999.90;;;;;;;22.25;57.89;95203.09;4990799;28;20030;-67
2022/06/05 03:56:48;;;;;;;1999.90;999.90;;;;;;;22.08;56.85;95115.13;4992466;28;20395;-66
2022/06/05 03:59:14;;;;;;;1999.90;999.90;;;;;;;22.17;56.36;95104.75;4991985;28;20080;-68
2022/06/05 04:01:39;;;;;;;1999.90;999.90;;;;;;;22.55;55.81;95110.72;4992339;28;20113;-66
2022/06/05 04:04:04;;;;;;;1999.90;999.90;;;;;;;22.62;54.99;95097.19;4991383;28;20069;-67
2022/06/05 04:06:31;;;;;;;1999.90;999.90;;;;;;;23.08;55.00;95148.13;4991612;28;20030;-67
2022/06/05 04:08:58;;;;;;;1999.90;999.90;;;;;;;23.00;54.64;95128.34;4991132;28;20034;-66
2022/06/05 04:11:24;;;;;;;1999.90;999.90;;;;;;;23.15;53.40;95102.03;4992250;28;20137;-66
2022/06/05 04:13:50;;;;;;;1999.90;999.90;;;;;;;23.16;53.26;95122.56;4992090;28;20101;-66
2022/06/05 04:16:22;;;;;;;1999.90;999.90;;;;;;;23.59;52.93;95133.47;4990209;28;20030;-66
2022/06/05 04:18:48;;;;;;;;;;;;;;;24.34;52.84;95234.78;4992319;28;20105;-67
2022/06/05 04:21:20;;;;;;;1999.90;999.90;;;;;;;23.45;52.85;95109.81;4992100;28;19913;-66
2022/06/05 04:23:46;;;;;;;1999.90;999.90;;;;;;;23.49;52.61;95090.78;4991262;28;20031;-67
2022/06/05 04:26:15;;;;;;;1999.90;999.90;;;;;;;23.93;52.22;95111.38;4991380;28;20029;-66
2022/06/05 04:28:41;;;;;;;1999.90;999.90;;;;;;;23.81;51.56;95088.88;4991406;28;20049;-67
2022/06/05 04:31:21;;;;;;;1999.90;999.90;;;;;;;24.19;51.10;95108.22;4992006;28;20492;-67
2022/06/05 04:33:48;;;;;;;1999.90;999.90;;;;;;;24.58;50.42;95134.53;4991023;28;20028;-67
2022/06/05 04:36:13;;;;;;;1999.90;999.90;;;;;;;24.09;51.15;95128.81;4991813;28;20502;-66
2022/06/05 04:38:40;;;;;;;1999.90;999.90;;;;;;;24.53;50.69;95105.81;4990389;28;20022;-67
2022/06/05 04:41:05;;;;;;;1999.90;999.90;;;;;;;24.73;49.84;95091.75;4991742;28;20081;-67
2022/06/05 04:43:32;;;;;;;1999.90;999.90;;;;;;;25.18;49.53;95190.66;4991496;28;20534;-67
2022/06/05 04:45:57;;;;;;;1999.90;999.90;;;;;;;24.68;49.80;95117.41;4990746;28;20021;-67
2022/06/05 04:48:23;;;;;;;1999.90;999.90;;;;;;;25.21;49.83;95222.53;4989998;28;20030;-68
2022/06/05 04:50:48;;;;;;;1999.90;999.90;;;;;;;23.65;50.71;95046.97;4991666;28;20026;-67
2022/06/05 04:53:13;;;;;;;1999.90;999.90;;;;;;;24.27;51.64;95202.19;4991428;28;20026;-68
2022/06/05 04:55:39;;;;;;;1999.90;999.90;;;;;;;24.09;51.36;95128.03;4990319;28;20031;-67
2022/06/05 04:58:05;;;;;;;1999.90;999.90;;;;;;;24.43;50.33;95105.84;4991164;28;20031;-67
2022/06/05 05:00:30;;;;;;;1999.90;999.90;;;;;;;24.11;50.15;95084.97;4991136;28;20038;-67
2022/06/05 05:02:55;;;;;;;1999.90;999.90;;;;;;;24.92;49.48;95093.19;4991470;28;20024;-68
2022/06/05 05:05:21;;;;;;;1999.90;999.90;;;;;;;24.97;48.71;95044.56;4990152;28;20023;-67
2022/06/05 05:07:46;;;;;;;1999.90;999.90;;;;;;;25.38;48.06;95110.03;4991244;28;20888;-67
2022/06/05 05:10:12;;;;;;;1999.90;999.90;;;;;;;25.23;47.42;95064.25;4989734;28;20121;-68
2022/06/05 05:12:39;;;;;;;1999.90;999.90;;;;;;;25.93;47.13;95128.31;4991293;28;20149;-67
2022/06/05 05:15:05;;;;;;;1999.90;999.90;;;;;;;26.66;46.18;95165.38;4991227;28;20026;-67
2022/06/05 05:17:31;;;;;;;1999.90;999.90;;;;;;;26.62;45.66;95178.31;4990019;28;20491;-68
2022/06/05 05:19:57;;;;;;;1999.90;999.90;;;;;;;26.20;45.36;95097.66;4990704;28;20109;-67
2022/06/05 05:22:22;;;;;;;1999.90;999.90;;;;;;;25.40;46.58;95044.31;4990839;28;20101;-67
2022/06/05 05:24:48;;;;;;;1999.90;999.90;;;;;;;25.01;48.01;95099.75;4989869;28;20034;-67
2022/06/05 05:27:14;;;;;;;1999.90;999.90;;;;;;;24.97;47.16;94989.38;4990924;28;20034;-67
2022/06/05 05:29:40;;;;;;;1999.90;999.90;;;;;;;25.79;47.77;95149.44;4990416;28;20034;-67
2022/06/05 05:32:07;;;;;;;1999.90;999.90;;;;;;;25.25;48.96;95143.59;4990917;28;20023;-66
2022/06/05 05:34:32;;;;;;;1999.90;999.90;;;;;;;24.76;48.29;95022.94;4989707;28;20026;-67
2022/06/05 05:36:58;;;;;;;1999.90;999.90;;;;;;;24.99;48.50;95055.84;4990826;28;20587;-67
2022/06/05 05:42:08;;;;;;;1999.90;999.90;;;;;;;25.61;48.76;95116.88;4990804;28;20103;-64
2022/06/05 05:44:39;;;;;;;1999.90;999.90;;;;;;;25.60;48.87;95139.84;4982078;28;20038;-68
2022/06/05 05:47:07;;;;;;;1999.90;999.90;;;;;;;25.57;49.28;95146.09;4990816;28;20030;-66
2022/06/05 05:49:33;;;;;;;1999.90;999.90;;;;;;;26.12;47.76;95142.56;4985184;28;20701;-67
2022/06/05 05:51:58;;;;;;;1999.90;999.90;;;;;;;25.74;49.25;95147.88;4989706;28;20038;-67
2022/06/05 05:54:23;;;;;;;1999.90;999.90;;;;;;;25.45;49.71;95135.69;4975805;28;20027;-66
2022/06/05 05:56:51;;;;;;;1999.90;999.90;;;;;;;25.09;49.18;95022.38;4990084;28;20032;-67
2022/06/05 05:59:16;;;;;;;1999.90;999.90;;;;;;;26.35;47.65;95128.28;4988947;28;20382;-66
2022/06/05 06:01:42;;;;;;;1999.90;999.90;;;;;;;26.49;47.36;95111.81;4990135;28;20026;-68
2022/06/05 06:04:07;;;;;;;1999.90;999.90;;;;;;;26.35;47.29;95106.47;4990089;28;20125;-66
2022/06/05 06:06:34;;;;;;;1999.90;999.90;;;;;;;26.21;47.31;95093.78;4985364;28;20467;-65
2022/06/05 06:09:00;;;;;;;1999.90;999.90;;;;;;;27.06;46.06;95116.53;4989425;28;20037;-65
2022/06/05 06:11:26;;;;;;;1999.90;999.90;;;;;;;27.20;45.84;95096.50;4989421;28;20027;-66
2022/06/05 06:13:52;;;;;;;1999.90;999.90;;;;;;;26.87;46.29;95106.25;4988487;28;20042;-67
2022/06/05 06:16:17;;;;;;;1999.90;999.90;;;;;;;27.28;45.55;95097.16;4989011;28;20114;-70
2022/06/05 06:18:43;;;;;;;1999.90;999.90;;;;;;;27.62;45.32;95111.44;4989531;28;20026;-69
2022/06/05 06:21:08;;;;;;;1999.90;999.90;;;;;;;27.61;44.67;95090.78;4989468;28;20034;-73
2022/06/05 06:23:37;;;;;;;1999.90;999.90;;;;;;;27.24;44.55;95058.22;4987863;28;20122;-69
2022/06/05 06:26:06;;;;;;;1999.90;999.90;;;;;;;27.16;45.92;95118.38;4987639;28;20109;-69
2022/06/05 06:28:32;;;;;;;1999.90;999.90;;;;;;;27.50;44.67;95111.28;4988092;28;20080;-69
2022/06/05 06:30:58;;;;;;;1999.90;999.90;;;;;;;27.52;45.04;95123.31;4990086;28;20030;-67
2022/06/05 06:33:23;;;;;;;1999.90;999.90;;;;;;;27.66;44.84;95122.34;4987831;28;20027;-67
2022/06/05 06:35:48;;;;;;;1999.90;999.90;;;;;;;27.88;44.32;95118.09;4988666;28;20105;-67
2022/06/05 06:38:14;;;;;;;1999.90;999.90;;;;;;;28.47;43.44;95114.72;4987693;28;20117;-69
2022/06/05 06:40:40;;;;;;;1999.90;999.90;;;;;;;28.97;42.27;95135.66;4988952;28;20550;-67
2022/06/05 06:43:05;;;;;;;1999.90;999.90;;;;;;;28.87;41.34;95117.44;4988808;28;20080;-68
2022/06/05 06:45:31;;;;;;;1999.90;999.90;;;;;;;29.23;40.18;95108.50;4988474;28;20026;-69
2022/06/05 06:47:56;;;;;;;1999.90;999.90;;;;;;;29.55;40.44;95123.47;4987258;28;20456;-65
2022/06/05 06:50:22;;;;;;;1999.90;999.90;;;;;;;29.48;39.87;95116.91;4989619;28;20446;-68
2022/06/05 06:52:47;;;;;;;1999.90;999.90;;;;;;;28.76;40.97;95084.03;4993436;28;20026;-65
2022/06/05 06:55:16;;;;;;;1999.90;999.90;;;;;;;28.70;41.90;95154.91;4991587;28;20034;-66
2022/06/05 06:57:44;;;;;;;1999.90;999.90;;;;;;;28.49;41.06;95101.38;4992949;28;20062;-65
2022/06/05 07:00:13;;;;;;;1999.90;999.90;;;;;;;28.40;42.21;95136.72;4992894;28;20105;-66
2022/06/05 07:02:39;;;;;;;1999.90;999.90;;;;;;;28.10;43.00;95148.59;4991251;28;20026;-66
2022/06/05 07:05:05;;;;;;;1999.90;999.90;;;;;;;28.94;41.75;95161.13;4993247;28;20378;-66
2022/06/05 07:07:30;;;;;;;1999.90;999.90;;;;;;;28.95;41.33;95140.00;4993000;28;20034;-66
2022/06/05 07:09:55;;;;;;;1999.90;999.90;;;;;;;29.71;40.60;95159.09;4991880;28;20034;-67
2022/06/05 07:12:21;;;;;;;1999.90;999.90;;;;;;;30.29;39.43;95201.19;4989553;28;20027;-65
2022/06/05 07:14:47;;;;;;;1999.90;999.90;;;;;;;29.33;40.65;95265.59;4991220;28;20651;-67
2022/06/05 07:17:12;;;;;;;1999.90;999.90;;;;;;;27.78;43.23;95242.03;4992269;28;20503;-72
2022/06/05 07:19:38;;;;;;;1999.90;999.90;;;;;;;26.77;46.54;95270.91;4991913;28;20027;-75
2022/06/05 07:22:03;;;;;;;1999.90;999.90;;;;;;;26.44;45.93;95200.28;4994571;28;20499;-73
2022/06/05 07:24:29;;;;;;;1999.90;999.90;;;;;;;25.60;49.77;95289.66;4993815;28;20033;-74
2022/06/05 07:26:54;;;;;;;1999.90;999.90;;;;;;;26.21;49.36;95267.47;4991351;28;20506;-73
2022/06/05 07:29:20;;;;;;;1999.90;999.90;;;;;;;27.46;45.69;95276.00;4993148;28;20113;-68
2022/06/05 07:31:46;;;;;;;1999.90;999.90;;;;;;;25.77;49.45;95267.00;4992950;28;20035;-70
2022/06/05 07:34:11;;;;;;;1999.90;999.90;;;;;;;26.52;48.45;95273.91;4993478;28;20503;-71
2022/06/05 07:36:37;;;;;;;1999.90;999.90;;;;;;;26.62;48.39;95292.13;4991981;28;20034;-70
2022/06/05 07:39:03;;;;;;;1999.90;999.90;;;;;;;26.18;48.97;95307.25;4988395;28;20030;-70
2022/06/05 07:41:33;;;;;;;1999.90;999.90;;;;;;;27.01;47.87;95312.78;4988865;28;20515;-69
2022/06/05 07:44:00;;;;;;;1999.90;999.90;;;;;;;26.58;48.73;95310.47;4989710;28;20037;-69
2022/06/05 07:46:27;;;;;;;1999.90;999.90;;;;;;;25.95;50.12;95326.06;4991612;28;20045;-70
2022/06/05 07:48:52;;;;;;;1999.90;999.90;;;;;;;27.30;46.76;95307.81;4989177;28;20034;-69
2022/06/05 07:54:28;;;;;;;1999.90;999.90;;;;;;;26.47;49.31;95318.75;4992693;28;20057;-67
2022/06/05 07:57:02;;;;;;;1999.90;999.90;;;;;;;27.13;47.45;95306.84;4990143;28;20050;-71
2022/06/05 07:59:30;;;;;;;1999.90;999.90;;;;;;;26.34;50.29;95301.28;4992132;28;20430;-72
2022/06/05 08:02:03;;;;;;;1999.90;999.90;;;;;;;26.40;49.54;95316.03;4989383;28;20117;-68
2022/06/05 08:04:29;;;;;;;1999.90;999.90;;;;;;;25.72;51.79;95318.41;4991642;28;20034;-70
2022/06/05 08:06:57;;;;;;;1999.90;999.90;;;;;;;25.17;52.78;95316.28;4990524;28;20030;-67
2022/06/05 08:09:23;;;;;;;1999.90;999.90;;;;;;;26.56;48.89;95304.63;4991472;28;20475;-69
2022/06/05 08:11:49;;;;;;;1999.90;999.90;;;;;;;25.55;51.30;95271.00;4990290;28;20034;-68
2022/06/05 08:14:14;;;;;;;1999.90;999.90;;;;;;;25.04;52.71;95275.84;4991067;28;20035;-69
2022/06/05 08:16:43;;;;;;;1999.90;999.90;;;;;;;25.01;52.84;95259.53;4995127;28;20029;-68
2022/06/05 08:19:12;;;;;;;1999.90;999.90;;;;;;;26.15;50.58;95292.44;4996993;28;20034;-69
2022/06/05 08:21:40;;;;;;;1999.90;999.90;;;;;;;25.54;51.53;95335.59;4988662;28;20080;-73
2022/06/05 08:24:05;;;;;;;1999.90;999.90;;;;;;;27.34;47.98;95328.44;4991380;28;20022;-70
2022/06/05 08:26:31;;;;;;;1999.90;999.90;;;;;;;27.62;47.04;95324.59;4993358;28;20029;-72
2022/06/05 08:28:56;;;;;;;1999.90;999.90;;;;;;;27.72;46.18;95296.38;4994254;28;20389;-68
2022/06/05 08:31:21;;;;;;;1999.90;999.90;;;;;;;27.69;47.30;95305.38;5005836;28;20031;-72
2022/06/05 08:33:47;;;;;;;1999.90;999.90;;;;;;;26.93;47.85;95334.69;4990854;28;20030;-68
2022/06/05 08:36:12;;;;;;;1999.90;999.90;;;;;;;27.70;46.74;95326.09;4991073;28;20038;-73
2022/06/05 08:41:42;;;;;;;1999.90;999.90;;;;;;;26.41;48.17;95323.81;4989969;28;20048;-73
2022/06/05 08:44:34;;;;;;;1999.90;999.90;;;;;;;27.60;46.75;95315.28;4991579;28;20018;-74
2022/06/05 08:47:05;;;;;;;;;;;;;;;27.38;46.16;95337.38;4990743;28;20022;-72
2022/06/05 08:49:52;;;;;;;1999.90;999.90;;;;;;;26.91;47.59;95339.78;4990017;28;20004;-75
2022/06/05 08:52:27;;;;;;;1999.90;999.90;;;;;;;26.29;49.15;95327.00;4988795;28;20065;-72
2022/06/05 08:54:58;;;;;;;1999.90;999.90;;;;;;;27.06;48.13;95353.28;4990667;28;20080;-75
2022/06/05 08:57:32;;;;;;;1999.90;999.90;;;;;;;25.97;50.58;95357.22;4990860;28;20050;-67
2022/06/05 09:00:05;;;;;;;1999.90;999.90;;;;;;;26.97;47.77;95359.22;4990685;28;20081;-66
2022/06/05 09:02:47;;;;;;;1999.90;999.90;;;;;;;27.28;47.25;95342.94;4990709;28;20054;-67
2022/06/05 09:05:18;;;;;;;1999.90;999.90;;;;;;;27.68;45.88;95352.22;4990954;28;20030;-67
2022/06/05 09:07:53;;;;;;;1999.90;999.90;;;;;;;28.02;44.76;95343.25;4990750;28;20034;-67
2022/06/05 09:10:38;;;;;;;1999.90;999.90;;;;;;;27.42;46.10;95320.94;4989527;28;20045;-70
2022/06/05 09:13:23;;;;;;;1999.90;999.90;;;;;;;27.62;45.97;95340.97;4989255;28;20030;-74
2022/06/05 09:15:59;;;;;;;1999.90;999.90;;;;;;;27.93;45.11;95321.88;4990479;28;20088;-70
2022/06/05 09:18:29;;;;;;;1999.90;999.90;;;;;;;26.82;47.45;95350.41;4989839;28;20483;-68
2022/06/05 09:21:05;;;;;;;1999.90;999.90;;;;;;;25.66;50.94;95342.56;4990607;28;20766;-71
2022/06/05 09:23:36;;;;;;;1999.90;999.90;;;;;;;26.25;49.12;95334.44;4990495;28;20061;-66
2022/06/05 09:26:22;;;;;;;1999.90;999.90;;;;;;;26.71;48.08;95333.34;4988254;28;20030;-68
2022/06/05 09:28:49;;;;;;;1999.90;999.90;;;;;;;26.26;49.24;95346.91;4988909;28;20110;-69
2022/06/05 09:31:50;;;;;;;1999.90;999.90;;;;;;;26.73;48.14;95352.06;4989166;28;20506;-69
2022/06/05 09:34:26;;;;;;;1999.90;999.90;;;;;;;27.16;47.69;95345.03;4989407;28;20041;-67
2022/06/05 09:37:19;;;;;;;1999.90;999.90;;;;;;;27.43;46.75;95342.38;4988360;28;20385;-67
2022/06/05 09:39:54;;;;;;;1999.90;999.90;;;;;;;27.78;45.80;95304.13;4988449;28;20093;-67
2022/06/05 09:42:57;;;;;;;1999.90;999.90;;;;;;;27.94;45.85;95350.75;4988347;28;20479;-67
2022/06/05 09:45:25;;;;;;;1999.90;999.90;;;;;;;27.81;45.73;95350.53;4970965;28;20031;-67
2022/06/05 09:48:24;;;;;;;1999.90;999.90;;;;;;;27.68;45.29;95350.28;4969590;28;20026;-66
2022/06/05 09:50:51;;;;;;;1999.90;999.90;;;;;;;27.54;46.32;95350.47;4971035;28;20098;-68
2022/06/05 09:53:42;;;;;;;1999.90;999.90;;;;;;;27.40;46.26;95351.41;4988207;28;20026;-74
2022/06/05 09:56:33;;;;;;;1999.90;999.90;;;;;;;27.70;45.54;95369.00;4986823;28;20056;-74
2022/06/05 09:59:23;;;;;;;1999.90;999.90;;;;;;;27.20;46.60;95364.09;4970652;28;20089;-74
2022/06/05 10:01:54;;;;;;;1999.90;999.90;;;;;;;27.40;46.45;95334.25;4984974;28;20695;-74
2022/06/05 10:04:21;;;;;;;1999.90;999.90;;;;;;;27.61;46.38;95327.75;4988866;28;20034;-74
2022/06/05 10:06:51;;;;;;;1999.90;999.90;;;;;;;27.64;45.48;95261.31;4989161;28;20030;-73
2022/06/05 10:09:26;;;;;;;1999.90;999.90;;;;;;;28.45;44.52;95324.25;4988444;28;20064;-74
2022/06/05 10:11:54;;;;;;;1999.90;999.90;;;;;;;28.53;44.09;95331.16;4970926;28;20054;-74
2022/06/05 10:14:46;;;;;;;1999.90;999.90;;;;;;;28.78;44.00;95330.75;4970663;28;20059;-74
2022/06/05 10:17:39;;;;;;;1999.90;999.90;;;;;;;28.53;43.90;95325.69;4970407;28;20126;-71
2022/06/05 10:20:16;;;;;;;1999.90;999.90;;;;;;;28.45;43.65;95277.75;4975189;28;20030;-73
2022/06/05 10:22:53;;;;;;;1999.90;999.90;;;;;;;28.44;43.40;95257.03;4989789;28;20033;-72
2022/06/05 10:25:42;;;;;;;1999.90;999.90;;;;;;;28.74;43.30;95308.91;4990662;28;20037;-72
2022/06/05 10:28:14;;;;;;;1999.90;999.90;;;;;;;29.04;42.89;95317.44;4992742;28;20034;-73
2022/06/05 10:30:52;;;;;;;1999.90;999.90;;;;;;;28.55;43.86;95317.06;4994066;28;20034;-75
2022/06/05 10:33:30;;;;;;;1999.90;999.90;;;;;;;28.32;44.45;95310.38;4993609;28;20027;-76
2022/06/05 10:36:06;;;;;;;1999.90;999.90;;;;;;;28.50;44.18;95308.13;4992615;28;20430;-68
2022/06/05 10:38:57;;;;;;;1999.90;999.90;;;;;;;27.68;46.08;95311.25;4992900;28;20022;-70
2022/06/05 10:41:54;;;;;;;1999.90;999.90;;;;;;;28.07;45.33;95315.44;4993008;28;20077;-75
2022/06/05 10:44:30;;;;;;;1999.90;999.90;;;;;;;28.25;45.17;95315.94;4992543;28;20420;-76
2022/06/05 10:47:04;;;;;;;1999.90;999.90;;;;;;;28.13;45.08;95300.88;4992468;28;20080;-77
2022/06/05 10:49:42;;;;;;;1999.90;999.90;;;;;;;27.69;46.15;95282.72;4990714;28;20386;-69
2022/06/05 10:52:28;;;;;;;1999.90;999.90;;;;;;;28.73;44.62;95296.44;4993909;28;20030;-75
2022/06/05 10:55:18;;;;;;;1999.90;999.90;;;;;;;28.79;43.96;95266.59;4982730;28;20491;-72
2022/06/05 10:57:54;;;;;;;1999.90;999.90;;;;;;;28.79;43.96;95268.56;4993337;28;20038;-73
2022/06/05 11:00:25;;;;;;;1999.90;999.90;;;;;;;29.15;43.23;95263.22;4993037;28;20475;-75
2022/06/05 11:03:01;;;;;;;1999.90;999.90;;;;;;;29.13;43.60;95273.84;4992375;28;20030;-77
2022/06/05 11:06:18;;;;;;;1999.90;999.90;;;;;;;29.38;42.79;95257.69;4993107;28;20030;-69
2022/06/05 11:09:03;;;;;;;1999.90;999.90;;;;;;;30.13;42.58;95266.25;4975522;28;20077;-66
2022/06/05 11:15:03;;;;;;;1999.90;999.90;;;;;;;28.54;44.46;95260.78;4989786;28;20061;-67
2022/06/05 11:18:05;;;;;;;1999.90;999.90;;;;;;;29.11;43.40;95240.59;4992979;28;20505;-68
2022/06/05 11:20:33;;;;;;;1999.90;999.90;;;;;;;28.79;44.51;95235.72;4992008;28;20140;-68
2022/06/05 11:23:13;;;;;;;1999.90;999.90;;;;;;;30.45;40.61;95236.06;4993135;28;20026;-67
2022/06/05 11:25:53;;;;;;;1999.90;999.90;;;;;;;31.40;38.76;95220.22;4993091;28;20032;-68
2022/06/05 11:28:34;;;;;;;1999.90;999.90;;;;;;;31.02;38.61;95237.34;4992739;28;20034;-68
2022/06/05 11:31:28;;;;;;;1999.90;999.90;;;;;;;30.48;39.45;95199.53;4991611;28;20042;-68